sensor_id;sensor_type;location;lat;lon;timestamp;temperature;humidity
68387;DHT22;55338;43.062;25.624;2023-05-07T00:00:29;11.10;99.90
68387;DHT22;55338;43.062;25.624;2023-05-07T00:02:55;11.00;99.90
68387;DHT22;55338;43.062;25.624;2023-05-07T00:05:21;11.00;99.90
68387;DHT22;55338;43.062;25.624;2023-05-07T00:07:47;11.00;99.90
68387;DHT22;55338;43.062;25.624;2023-05-07T00:10:13;10.90;99.90
68387;DHT22;55338;43.062;25.624;2023-05-07T00:15:05;10.80;99.90
68387;DHT22;55338;43.062;25.624;2023-05-07T00:17:32;10.80;99.90
68387;DHT22;55338;43.062;25.624;2023-05-07T00:19:58;10.70;99.90
68387;DHT22;55338;43.062;25.624;2023-05-07T00:22:23;10.70;99.90
68387;DHT22;55338;43.062;25.624;2023-05-07T00:24:49;10.70;99.90
68387;DHT22;55338;43.062;25.624;2023-05-07T00:27:16;10.60;99.90
68387;DHT22;55338;43.062;25.624;2023-05-07T00:29:42;10.60;99.90
68387;DHT22;55338;43.062;25.624;2023-05-07T00:32:08;10.50;99.90
68387;DHT22;55338;43.062;25.624;2023-05-07T00:34:34;10.50;99.90
68387;DHT22;55338;43.062;25.624;2023-05-07T00:37:01;10.60;99.90
68387;DHT22;55338;43.062;25.624;2023-05-07T00:39:27;10.60;99.90
68387;DHT22;55338;43.062;25.624;2023-05-07T00:41:52;10.60;99.90
68387;DHT22;55338;43.062;25.624;2023-05-07T00:44:18;10.60;99.90
68387;DHT22;55338;43.062;25.624;2023-05-07T00:46:44;10.70;99.90
68387;DHT22;55338;43.062;25.624;2023-05-07T00:49:10;10.70;99.90
68387;DHT22;55338;43.062;25.624;2023-05-07T00:51:37;10.70;99.90
68387;DHT22;55338;43.062;25.624;2023-05-07T00:54:03;10.70;99.90
68387;DHT22;55338;43.062;25.624;2023-05-07T00:56:29;10.70;99.90
68387;DHT22;55338;43.062;25.624;2023-05-07T00:58:55;10.70;99.90
68387;DHT22;55338;43.062;25.624;2023-05-07T01:01:21;10.70;99.90
68387;DHT22;55338;43.062;25.624;2023-05-07T01:03:46;10.70;99.90
68387;DHT22;55338;43.062;25.624;2023-05-07T01:06:13;10.70;99.90
68387;DHT22;55338;43.062;25.624;2023-05-07T01:08:42;10.70;99.90
68387;DHT22;55338;43.062;25.624;2023-05-07T01:11:09;10.80;99.90
68387;DHT22;55338;43.062;25.624;2023-05-07T01:13:36;10.80;99.90
68387;DHT22;55338;43.062;25.624;2023-05-07T01:16:03;10.80;99.90
68387;DHT22;55338;43.062;25.624;2023-05-07T01:18:29;10.80;99.90
68387;DHT22;55338;43.062;25.624;2023-05-07T01:20:58;10.70;99.90
68387;DHT22;55338;43.062;25.624;2023-05-07T01:23:25;10.80;99.90
68387;DHT22;55338;43.062;25.624;2023-05-07T01:25:52;10.80;99.90
68387;DHT22;55338;43.062;25.624;2023-05-07T01:28:18;10.80;99.90
68387;DHT22;55338;43.062;25.624;2023-05-07T01:30:48;10.80;99.90
68387;DHT22;55338;43.062;25.624;2023-05-07T01:33:19;10.70;99.90
68387;DHT22;55338;43.062;25.624;2023-05-07T01:35:48;10.80;99.90
68387;DHT22;55338;43.062;25.624;2023-05-07T01:38:16;10.70;99.90
68387;DHT22;55338;43.062;25.624;2023-05-07T01:40:43;10.70;99.90
68387;DHT22;55338;43.062;25.624;2023-05-07T01:43:09;10.70;99.90
68387;DHT22;55338;43.062;25.624;2023-05-07T01:45:36;10.70;99.90
68387;DHT22;55338;43.062;25.624;2023-05-07T01:48:06;10.70;99.90
68387;DHT22;55338;43.062;25.624;2023-05-07T01:50:33;10.70;99.90
68387;DHT22;55338;43.062;25.624;2023-05-07T01:52:59;10.80;99.90
68387;DHT22;55338;43.062;25.624;2023-05-07T01:55:25;10.70;99.90
68387;DHT22;55338;43.062;25.624;2023-05-07T01:57:50;10.70;99.90
68387;DHT22;55338;43.062;25.624;2023-05-07T02:00:16;10.70;99.90
68387;DHT22;55338;43.062;25.624;2023-05-07T02:02:43;10.70;99.90
68387;DHT22;55338;43.062;25.624;2023-05-07T02:05:09;10.70;99.90
68387;DHT22;55338;43.062;25.624;2023-05-07T02:07:35;10.70;99.90
68387;DHT22;55338;43.062;25.624;2023-05-07T02:10:01;10.70;99.90
68387;DHT22;55338;43.062;25.624;2023-05-07T02:12:27;10.60;99.90
68387;DHT22;55338;43.062;25.624;2023-05-07T02:14:52;10.60;99.90
68387;DHT22;55338;43.062;25.624;2023-05-07T02:17:18;10.60;99.90
68387;DHT22;55338;43.062;25.624;2023-05-07T02:19:44;10.50;99.90
68387;DHT22;55338;43.062;25.624;2023-05-07T02:22:10;10.50;99.90
68387;DHT22;55338;43.062;25.624;2023-05-07T02:24:35;10.50;99.90
68387;DHT22;55338;43.062;25.624;2023-05-07T02:27:01;10.50;99.90
68387;DHT22;55338;43.062;25.624;2023-05-07T02:29:28;10.40;99.90
68387;DHT22;55338;43.062;25.624;2023-05-07T02:31:54;10.40;99.90
68387;DHT22;55338;43.062;25.624;2023-05-07T02:34:20;10.50;99.90
68387;DHT22;55338;43.062;25.624;2023-05-07T02:36:47;10.50;99.90
68387;DHT22;55338;43.062;25.624;2023-05-07T02:39:13;10.40;99.90
68387;DHT22;55338;43.062;25.624;2023-05-07T02:41:39;10.50;99.90
68387;DHT22;55338;43.062;25.624;2023-05-07T02:44:05;10.50;99.90
68387;DHT22;55338;43.062;25.624;2023-05-07T02:46:31;10.50;99.90
68387;DHT22;55338;43.062;25.624;2023-05-07T02:48:57;10.40;99.90
68387;DHT22;55338;43.062;25.624;2023-05-07T02:51:23;10.40;99.90
68387;DHT22;55338;43.062;25.624;2023-05-07T02:53:49;10.40;99.90
68387;DHT22;55338;43.062;25.624;2023-05-07T02:56:15;10.40;99.90
68387;DHT22;55338;43.062;25.624;2023-05-07T02:58:41;10.30;99.90
68387;DHT22;55338;43.062;25.624;2023-05-07T03:01:08;10.20;99.90
68387;DHT22;55338;43.062;25.624;2023-05-07T03:03:34;10.20;99.90
68387;DHT22;55338;43.062;25.624;2023-05-07T03:06:00;10.10;99.90
68387;DHT22;55338;43.062;25.624;2023-05-07T03:08:32;10.10;99.90
68387;DHT22;55338;43.062;25.624;2023-05-07T03:10:58;9.90;99.90
68387;DHT22;55338;43.062;25.624;2023-05-07T03:13:24;10.00;99.90
68387;DHT22;55338;43.062;25.624;2023-05-07T03:15:49;10.00;99.90
68387;DHT22;55338;43.062;25.624;2023-05-07T03:18:15;10.00;99.90
68387;DHT22;55338;43.062;25.624;2023-05-07T03:20:41;10.00;99.90
68387;DHT22;55338;43.062;25.624;2023-05-07T03:23:06;10.00;99.90
68387;DHT22;55338;43.062;25.624;2023-05-07T03:25:32;10.00;99.90
68387;DHT22;55338;43.062;25.624;2023-05-07T03:27:58;10.00;99.90
68387;DHT22;55338;43.062;25.624;2023-05-07T03:30:24;9.90;99.90
68387;DHT22;55338;43.062;25.624;2023-05-07T03:32:50;10.00;99.90
68387;DHT22;55338;43.062;25.624;2023-05-07T03:35:16;10.00;99.90
68387;DHT22;55338;43.062;25.624;2023-05-07T03:37:42;9.90;99.90
68387;DHT22;55338;43.062;25.624;2023-05-07T03:40:09;9.90;99.90
68387;DHT22;55338;43.062;25.624;2023-05-07T03:42:35;9.90;99.90
68387;DHT22;55338;43.062;25.624;2023-05-07T03:45:01;9.90;99.90
68387;DHT22;55338;43.062;25.624;2023-05-07T03:47:27;10.00;99.90
68387;DHT22;55338;43.062;25.624;2023-05-07T03:49:53;10.00;99.90
68387;DHT22;55338;43.062;25.624;2023-05-07T03:52:20;10.00;99.90
68387;DHT22;55338;43.062;25.624;2023-05-07T03:54:50;10.00;99.90
68387;DHT22;55338;43.062;25.624;2023-05-07T03:57:15;10.10;99.90
68387;DHT22;55338;43.062;25.624;2023-05-07T03:59:41;10.10;99.90
68387;DHT22;55338;43.062;25.624;2023-05-07T04:02:07;10.20;99.90
68387;DHT22;55338;43.062;25.624;2023-05-07T04:04:32;10.20;99.90
68387;DHT22;55338;43.062;25.624;2023-05-07T04:06:58;10.30;99.90
68387;DHT22;55338;43.062;25.624;2023-05-07T04:09:25;10.30;99.90
68387;DHT22;55338;43.062;25.624;2023-05-07T04:11:53;10.40;99.90
68387;DHT22;55338;43.062;25.624;2023-05-07T04:14:19;10.40;99.90
68387;DHT22;55338;43.062;25.624;2023-05-07T04:16:45;10.50;99.90
68387;DHT22;55338;43.062;25.624;2023-05-07T04:19:10;10.60;99.90
68387;DHT22;55338;43.062;25.624;2023-05-07T04:21:36;10.70;99.90
68387;DHT22;55338;43.062;25.624;2023-05-07T04:24:03;10.90;99.90
68387;DHT22;55338;43.062;25.624;2023-05-07T04:26:29;10.90;99.90
68387;DHT22;55338;43.062;25.624;2023-05-07T04:28:55;11.00;99.90
68387;DHT22;55338;43.062;25.624;2023-05-07T04:31:22;11.10;99.90
68387;DHT22;55338;43.062;25.624;2023-05-07T04:33:47;11.20;99.90
68387;DHT22;55338;43.062;25.624;2023-05-07T04:36:13;11.30;99.90
68387;DHT22;55338;43.062;25.624;2023-05-07T04:38:39;11.40;99.90
68387;DHT22;55338;43.062;25.624;2023-05-07T04:41:06;11.60;99.90
68387;DHT22;55338;43.062;25.624;2023-05-07T04:43:36;11.80;99.90
68387;DHT22;55338;43.062;25.624;2023-05-07T04:46:01;11.90;99.90
68387;DHT22;55338;43.062;25.624;2023-05-07T04:48:27;12.10;99.90
68387;DHT22;55338;43.062;25.624;2023-05-07T04:50:54;12.20;99.90
68387;DHT22;55338;43.062;25.624;2023-05-07T04:53:20;12.40;99.90
68387;DHT22;55338;43.062;25.624;2023-05-07T04:55:54;12.50;99.90
68387;DHT22;55338;43.062;25.624;2023-05-07T04:58:20;12.70;99.90
68387;DHT22;55338;43.062;25.624;2023-05-07T05:00:46;12.90;99.90
68387;DHT22;55338;43.062;25.624;2023-05-07T05:03:12;13.10;99.90
68387;DHT22;55338;43.062;25.624;2023-05-07T05:05:37;13.30;99.90
68387;DHT22;55338;43.062;25.624;2023-05-07T05:08:03;13.40;99.90
68387;DHT22;55338;43.062;25.624;2023-05-07T05:10:29;13.50;99.90
68387;DHT22;55338;43.062;25.624;2023-05-07T05:12:55;13.40;99.90
68387;DHT22;55338;43.062;25.624;2023-05-07T05:15:21;13.40;99.90
68387;DHT22;55338;43.062;25.624;2023-05-07T05:17:47;13.60;99.90
68387;DHT22;55338;43.062;25.624;2023-05-07T05:20:13;13.80;99.90
68387;DHT22;55338;43.062;25.624;2023-05-07T05:22:40;13.90;99.90
68387;DHT22;55338;43.062;25.624;2023-05-07T05:25:06;14.00;99.90
68387;DHT22;55338;43.062;25.624;2023-05-07T05:27:31;14.10;99.90
68387;DHT22;55338;43.062;25.624;2023-05-07T05:29:57;14.20;99.90
68387;DHT22;55338;43.062;25.624;2023-05-07T05:32:23;14.20;99.90
68387;DHT22;55338;43.062;25.624;2023-05-07T05:34:49;14.40;99.90
68387;DHT22;55338;43.062;25.624;2023-05-07T05:37:14;14.70;99.90
68387;DHT22;55338;43.062;25.624;2023-05-07T05:39:40;15.10;99.90
68387;DHT22;55338;43.062;25.624;2023-05-07T05:42:06;15.10;99.90
68387;DHT22;55338;43.062;25.624;2023-05-07T05:44:32;15.10;99.90
68387;DHT22;55338;43.062;25.624;2023-05-07T05:46:59;15.40;99.90
68387;DHT22;55338;43.062;25.624;2023-05-07T05:49:25;15.60;99.90
68387;DHT22;55338;43.062;25.624;2023-05-07T05:51:51;15.80;99.90
68387;DHT22;55338;43.062;25.624;2023-05-07T05:54:17;16.20;99.90
68387;DHT22;55338;43.062;25.624;2023-05-07T05:56:42;16.60;99.90
68387;DHT22;55338;43.062;25.624;2023-05-07T05:59:08;16.80;99.90
68387;DHT22;55338;43.062;25.624;2023-05-07T06:01:34;17.20;99.90
68387;DHT22;55338;43.062;25.624;2023-05-07T06:04:00;17.40;99.60
68387;DHT22;55338;43.062;25.624;2023-05-07T06:06:25;17.60;98.20
68387;DHT22;55338;43.062;25.624;2023-05-07T06:08:51;17.70;97.40
68387;DHT22;55338;43.062;25.624;2023-05-07T06:11:17;18.00;96.00
68387;DHT22;55338;43.062;25.624;2023-05-07T06:13:43;18.60;94.70
68387;DHT22;55338;43.062;25.624;2023-05-07T06:16:08;19.10;92.20
68387;DHT22;55338;43.062;25.624;2023-05-07T06:18:40;19.40;89.90
68387;DHT22;55338;43.062;25.624;2023-05-07T06:21:05;19.90;88.50
68387;DHT22;55338;43.062;25.624;2023-05-07T06:23:31;20.20;85.20
68387;DHT22;55338;43.062;25.624;2023-05-07T06:25:57;20.50;81.40
68387;DHT22;55338;43.062;25.624;2023-05-07T06:28:23;20.70;79.20
68387;DHT22;55338;43.062;25.624;2023-05-07T06:30:48;20.80;75.80
68387;DHT22;55338;43.062;25.624;2023-05-07T06:33:15;20.60;76.50
68387;DHT22;55338;43.062;25.624;2023-05-07T06:35:41;20.90;76.30
68387;DHT22;55338;43.062;25.624;2023-05-07T06:38:07;21.30;71.30
68387;DHT22;55338;43.062;25.624;2023-05-07T06:40:33;21.70;69.40
68387;DHT22;55338;43.062;25.624;2023-05-07T06:42:58;21.90;67.40
68387;DHT22;55338;43.062;25.624;2023-05-07T06:45:24;22.00;64.50
68387;DHT22;55338;43.062;25.624;2023-05-07T06:47:50;22.10;63.70
68387;DHT22;55338;43.062;25.624;2023-05-07T06:50:20;22.30;61.40
68387;DHT22;55338;43.062;25.624;2023-05-07T06:52:46;22.40;62.70
68387;DHT22;55338;43.062;25.624;2023-05-07T06:55:12;22.90;60.50
68387;DHT22;55338;43.062;25.624;2023-05-07T06:57:38;23.10;57.20
68387;DHT22;55338;43.062;25.624;2023-05-07T07:00:05;23.50;57.70
68387;DHT22;55338;43.062;25.624;2023-05-07T07:02:34;23.70;56.50
68387;DHT22;55338;43.062;25.624;2023-05-07T07:05:00;24.00;55.10
68387;DHT22;55338;43.062;25.624;2023-05-07T07:07:25;23.90;54.60
68387;DHT22;55338;43.062;25.624;2023-05-07T07:09:51;24.10;53.50
68387;DHT22;55338;43.062;25.624;2023-05-07T07:12:17;24.10;52.30
68387;DHT22;55338;43.062;25.624;2023-05-07T07:14:42;24.20;51.90
68387;DHT22;55338;43.062;25.624;2023-05-07T07:17:08;24.00;51.60
68387;DHT22;55338;43.062;25.624;2023-05-07T07:19:34;24.20;51.60
68387;DHT22;55338;43.062;25.624;2023-05-07T07:22:03;24.60;50.10
68387;DHT22;55338;43.062;25.624;2023-05-07T07:24:29;24.80;51.50
68387;DHT22;55338;43.062;25.624;2023-05-07T07:26:54;25.30;49.50
68387;DHT22;55338;43.062;25.624;2023-05-07T07:29:20;25.70;46.60
68387;DHT22;55338;43.062;25.624;2023-05-07T07:31:47;25.90;45.90
68387;DHT22;55338;43.062;25.624;2023-05-07T07:34:16;26.10;46.80
68387;DHT22;55338;43.062;25.624;2023-05-07T07:36:41;26.20;44.40
68387;DHT22;55338;43.062;25.624;2023-05-07T07:39:07;26.10;42.90
68387;DHT22;55338;43.062;25.624;2023-05-07T07:41:33;25.90;43.60
68387;DHT22;55338;43.062;25.624;2023-05-07T07:43:59;26.00;42.10
68387;DHT22;55338;43.062;25.624;2023-05-07T07:46:25;26.20;42.90
68387;DHT22;55338;43.062;25.624;2023-05-07T07:48:52;26.40;42.50
68387;DHT22;55338;43.062;25.624;2023-05-07T07:51:29;26.70;42.40
68387;DHT22;55338;43.062;25.624;2023-05-07T07:53:55;26.90;40.70
68387;DHT22;55338;43.062;25.624;2023-05-07T07:56:23;27.20;42.10
68387;DHT22;55338;43.062;25.624;2023-05-07T07:58:49;27.30;40.90
68387;DHT22;55338;43.062;25.624;2023-05-07T08:01:15;26.80;39.70
68387;DHT22;55338;43.062;25.624;2023-05-07T08:03:42;26.90;41.00
68387;DHT22;55338;43.062;25.624;2023-05-07T08:06:07;26.90;40.30
68387;DHT22;55338;43.062;25.624;2023-05-07T08:08:33;26.50;41.80
68387;DHT22;55338;43.062;25.624;2023-05-07T08:10:59;26.70;41.40
68387;DHT22;55338;43.062;25.624;2023-05-07T08:13:25;27.20;40.50
68387;DHT22;55338;43.062;25.624;2023-05-07T08:15:50;27.60;40.50
68387;DHT22;55338;43.062;25.624;2023-05-07T08:18:16;28.00;37.00
68387;DHT22;55338;43.062;25.624;2023-05-07T08:20:42;27.80;32.40
68387;DHT22;55338;43.062;25.624;2023-05-07T08:23:07;27.90;31.90
68387;DHT22;55338;43.062;25.624;2023-05-07T08:26:07;27.90;29.70
68387;DHT22;55338;43.062;25.624;2023-05-07T08:29:06;28.00;29.50
68387;DHT22;55338;43.062;25.624;2023-05-07T08:31:31;27.60;27.90
68387;DHT22;55338;43.062;25.624;2023-05-07T08:33:58;27.90;29.60
68387;DHT22;55338;43.062;25.624;2023-05-07T08:36:24;27.80;29.90
68387;DHT22;55338;43.062;25.624;2023-05-07T08:38:51;28.00;31.00
68387;DHT22;55338;43.062;25.624;2023-05-07T08:41:18;27.90;28.30
68387;DHT22;55338;43.062;25.624;2023-05-07T08:43:48;28.20;29.80
68387;DHT22;55338;43.062;25.624;2023-05-07T08:46:22;28.10;29.20
68387;DHT22;55338;43.062;25.624;2023-05-07T08:48:48;27.90;27.60
68387;DHT22;55338;43.062;25.624;2023-05-07T08:51:18;27.80;29.80
68387;DHT22;55338;43.062;25.624;2023-05-07T08:53:44;28.10;29.30
68387;DHT22;55338;43.062;25.624;2023-05-07T08:56:43;28.20;28.70
68387;DHT22;55338;43.062;25.624;2023-05-07T08:59:15;28.60;29.40
68387;DHT22;55338;43.062;25.624;2023-05-07T09:01:41;28.90;27.10
68387;DHT22;55338;43.062;25.624;2023-05-07T09:04:06;28.50;27.00
68387;DHT22;55338;43.062;25.624;2023-05-07T09:06:33;28.30;26.30
68387;DHT22;55338;43.062;25.624;2023-05-07T09:09:00;28.00;27.50
68387;DHT22;55338;43.062;25.624;2023-05-07T09:11:27;28.50;30.10
68387;DHT22;55338;43.062;25.624;2023-05-07T09:13:56;28.50;29.50
68387;DHT22;55338;43.062;25.624;2023-05-07T09:16:23;28.70;29.60
68387;DHT22;55338;43.062;25.624;2023-05-07T09:18:54;28.90;28.30
68387;DHT22;55338;43.062;25.624;2023-05-07T09:21:20;28.90;27.40
68387;DHT22;55338;43.062;25.624;2023-05-07T09:23:51;29.00;28.70
68387;DHT22;55338;43.062;25.624;2023-05-07T09:26:49;29.20;27.80
68387;DHT22;55338;43.062;25.624;2023-05-07T09:29:19;29.20;29.20
68387;DHT22;55338;43.062;25.624;2023-05-07T09:31:45;29.30;28.90
68387;DHT22;55338;43.062;25.624;2023-05-07T09:34:11;29.50;27.70
68387;DHT22;55338;43.062;25.624;2023-05-07T09:36:36;29.60;27.70
68387;DHT22;55338;43.062;25.624;2023-05-07T09:39:02;29.50;29.50
68387;DHT22;55338;43.062;25.624;2023-05-07T09:41:30;29.30;29.90
68387;DHT22;55338;43.062;25.624;2023-05-07T09:43:57;29.50;27.80
68387;DHT22;55338;43.062;25.624;2023-05-07T09:46:31;29.30;30.00
68387;DHT22;55338;43.062;25.624;2023-05-07T09:48:58;29.40;27.90
68387;DHT22;55338;43.062;25.624;2023-05-07T09:51:29;29.50;28.50
68387;DHT22;55338;43.062;25.624;2023-05-07T09:53:57;29.30;30.60
68387;DHT22;55338;43.062;25.624;2023-05-07T09:56:26;29.40;30.70
68387;DHT22;55338;43.062;25.624;2023-05-07T09:58:54;29.40;30.90
68387;DHT22;55338;43.062;25.624;2023-05-07T10:01:21;29.50;32.40
68387;DHT22;55338;43.062;25.624;2023-05-07T10:03:49;29.40;28.30
68387;DHT22;55338;43.062;25.624;2023-05-07T10:06:15;29.50;28.80
68387;DHT22;55338;43.062;25.624;2023-05-07T10:08:43;29.10;31.10
68387;DHT22;55338;43.062;25.624;2023-05-07T10:11:09;29.50;31.10
68387;DHT22;55338;43.062;25.624;2023-05-07T10:13:35;29.90;31.40
68387;DHT22;55338;43.062;25.624;2023-05-07T10:16:05;30.20;28.20
68387;DHT22;55338;43.062;25.624;2023-05-07T10:18:37;30.30;30.00
68387;DHT22;55338;43.062;25.624;2023-05-07T10:21:30;29.70;30.00
68387;DHT22;55338;43.062;25.624;2023-05-07T10:24:05;29.80;30.30
68387;DHT22;55338;43.062;25.624;2023-05-07T10:26:33;29.90;29.80
68387;DHT22;55338;43.062;25.624;2023-05-07T10:29:05;29.70;30.60
68387;DHT22;55338;43.062;25.624;2023-05-07T10:34:12;29.90;32.20
68387;DHT22;55338;43.062;25.624;2023-05-07T10:36:40;30.20;32.10
68387;DHT22;55338;43.062;25.624;2023-05-07T10:39:06;30.70;29.40
68387;DHT22;55338;43.062;25.624;2023-05-07T10:41:32;30.80;28.20
68387;DHT22;55338;43.062;25.624;2023-05-07T10:43:58;30.50;29.80
68387;DHT22;55338;43.062;25.624;2023-05-07T10:46:26;30.60;28.70
68387;DHT22;55338;43.062;25.624;2023-05-07T10:51:29;31.10;29.30
68387;DHT22;55338;43.062;25.624;2023-05-07T10:56:48;30.90;29.10
68387;DHT22;55338;43.062;25.624;2023-05-07T11:01:54;30.60;29.70
68387;DHT22;55338;43.062;25.624;2023-05-07T11:04:21;31.00;30.00
68387;DHT22;55338;43.062;25.624;2023-05-07T11:15:07;31.10;28.90
68387;DHT22;55338;43.062;25.624;2023-05-07T11:17:34;31.30;27.50
68387;DHT22;55338;43.062;25.624;2023-05-07T11:20:17;30.90;28.50
68387;DHT22;55338;43.062;25.624;2023-05-07T11:22:43;31.20;27.50
68387;DHT22;55338;43.062;25.624;2023-05-07T11:25:08;31.10;28.80
68387;DHT22;55338;43.062;25.624;2023-05-07T11:27:36;30.80;27.80
68387;DHT22;55338;43.062;25.624;2023-05-07T11:30:02;30.80;28.60
68387;DHT22;55338;43.062;25.624;2023-05-07T11:32:30;30.10;29.20
68387;DHT22;55338;43.062;25.624;2023-05-07T11:34:58;30.00;30.20
68387;DHT22;55338;43.062;25.624;2023-05-07T11:37:25;30.10;30.00
68387;DHT22;55338;43.062;25.624;2023-05-07T11:40:05;30.30;30.60
68387;DHT22;55338;43.062;25.624;2023-05-07T11:42:36;30.60;29.00
68387;DHT22;55338;43.062;25.624;2023-05-07T11:45:03;30.50;29.50
68387;DHT22;55338;43.062;25.624;2023-05-07T11:47:30;30.40;30.50
68387;DHT22;55338;43.062;25.624;2023-05-07T11:49:56;29.80;30.10
68387;DHT22;55338;43.062;25.624;2023-05-07T11:52:23;30.20;32.50
68387;DHT22;55338;43.062;25.624;2023-05-07T11:54:54;30.80;28.20
68387;DHT22;55338;43.062;25.624;2023-05-07T11:57:21;31.10;27.70
68387;DHT22;55338;43.062;25.624;2023-05-07T12:00:19;31.30;27.90
68387;DHT22;55338;43.062;25.624;2023-05-07T12:03:17;31.60;28.10
68387;DHT22;55338;43.062;25.624;2023-05-07T12:06:18;31.50;27.80
68387;DHT22;55338;43.062;25.624;2023-05-07T12:08:45;30.70;30.00
68387;DHT22;55338;43.062;25.624;2023-05-07T12:11:24;30.90;27.80
68387;DHT22;55338;43.062;25.624;2023-05-07T12:13:51;31.00;27.50
68387;DHT22;55338;43.062;25.624;2023-05-07T12:16:17;30.80;28.40
68387;DHT22;55338;43.062;25.624;2023-05-07T12:18:44;30.80;28.40
68387;DHT22;55338;43.062;25.624;2023-05-07T12:21:10;31.20;27.90
68387;DHT22;55338;43.062;25.624;2023-05-07T12:23:37;31.30;26.00
68387;DHT22;55338;43.062;25.624;2023-05-07T12:26:04;31.40;28.50
68387;DHT22;55338;43.062;25.624;2023-05-07T12:28:31;31.30;26.70
68387;DHT22;55338;43.062;25.624;2023-05-07T12:31:05;31.80;25.30
68387;DHT22;55338;43.062;25.624;2023-05-07T12:33:31;31.60;25.70
68387;DHT22;55338;43.062;25.624;2023-05-07T12:35:58;30.80;28.20
68387;DHT22;55338;43.062;25.624;2023-05-07T12:38:23;31.00;27.10
68387;DHT22;55338;43.062;25.624;2023-05-07T12:40:53;31.00;26.80
68387;DHT22;55338;43.062;25.624;2023-05-07T12:43:27;31.10;27.70
68387;DHT22;55338;43.062;25.624;2023-05-07T12:45:56;31.40;26.70
68387;DHT22;55338;43.062;25.624;2023-05-07T12:48:23;31.60;26.60
68387;DHT22;55338;43.062;25.624;2023-05-07T12:50:56;31.90;24.20
68387;DHT22;55338;43.062;25.624;2023-05-07T12:53:24;32.30;24.70
68387;DHT22;55338;43.062;25.624;2023-05-07T12:55:55;32.60;25.10
68387;DHT22;55338;43.062;25.624;2023-05-07T12:58:33;32.80;26.70
68387;DHT22;55338;43.062;25.624;2023-05-07T13:01:01;32.60;26.10
68387;DHT22;55338;43.062;25.624;2023-05-07T13:04:05;32.30;24.50
68387;DHT22;55338;43.062;25.624;2023-05-07T13:06:31;32.10;24.90
68387;DHT22;55338;43.062;25.624;2023-05-07T13:08:57;32.40;27.00
68387;DHT22;55338;43.062;25.624;2023-05-07T13:11:22;32.50;24.80
68387;DHT22;55338;43.062;25.624;2023-05-07T13:13:48;32.60;27.50
68387;DHT22;55338;43.062;25.624;2023-05-07T13:16:14;32.20;24.60
68387;DHT22;55338;43.062;25.624;2023-05-07T13:18:40;32.30;25.00
68387;DHT22;55338;43.062;25.624;2023-05-07T13:21:06;32.20;25.40
68387;DHT22;55338;43.062;25.624;2023-05-07T13:23:32;31.70;25.20
68387;DHT22;55338;43.062;25.624;2023-05-07T13:25:57;31.70;25.70
68387;DHT22;55338;43.062;25.624;2023-05-07T13:28:24;31.90;25.10
68387;DHT22;55338;43.062;25.624;2023-05-07T13:30:50;32.40;25.40
68387;DHT22;55338;43.062;25.624;2023-05-07T13:33:17;31.90;25.20
68387;DHT22;55338;43.062;25.624;2023-05-07T13:35:47;31.80;25.90
68387;DHT22;55338;43.062;25.624;2023-05-07T13:38:13;32.00;24.90
68387;DHT22;55338;43.062;25.624;2023-05-07T13:40:41;32.00;25.00
68387;DHT22;55338;43.062;25.624;2023-05-07T13:43:07;32.10;24.10
68387;DHT22;55338;43.062;25.624;2023-05-07T13:45:33;32.30;24.70
68387;DHT22;55338;43.062;25.624;2023-05-07T13:47:59;32.50;22.90
68387;DHT22;55338;43.062;25.624;2023-05-07T13:50:24;32.60;22.50
68387;DHT22;55338;43.062;25.624;2023-05-07T13:52:52;32.90;22.50
68387;DHT22;55338;43.062;25.624;2023-05-07T13:55:19;32.80;21.80
68387;DHT22;55338;43.062;25.624;2023-05-07T13:57:45;32.90;21.90
68387;DHT22;55338;43.062;25.624;2023-05-07T14:00:12;32.60;23.30
68387;DHT22;55338;43.062;25.624;2023-05-07T14:02:38;32.80;23.70
68387;DHT22;55338;43.062;25.624;2023-05-07T14:05:04;32.80;25.00
68387;DHT22;55338;43.062;25.624;2023-05-07T14:07:37;32.60;23.70
68387;DHT22;55338;43.062;25.624;2023-05-07T14:10:03;32.40;22.10
68387;DHT22;55338;43.062;25.624;2023-05-07T14:12:29;32.30;24.40
68387;DHT22;55338;43.062;25.624;2023-05-07T14:14:55;31.80;23.60
68387;DHT22;55338;43.062;25.624;2023-05-07T14:17:21;31.10;24.00
68387;DHT22;55338;43.062;25.624;2023-05-07T14:19:50;31.00;25.30
68387;DHT22;55338;43.062;25.624;2023-05-07T14:22:16;30.80;24.80
68387;DHT22;55338;43.062;25.624;2023-05-07T14:24:41;30.80;25.20
68387;DHT22;55338;43.062;25.624;2023-05-07T14:27:07;30.60;26.60
68387;DHT22;55338;43.062;25.624;2023-05-07T14:29:33;30.60;25.30
68387;DHT22;55338;43.062;25.624;2023-05-07T14:32:01;30.60;25.30
68387;DHT22;55338;43.062;25.624;2023-05-07T14:34:27;30.50;26.10
68387;DHT22;55338;43.062;25.624;2023-05-07T14:36:53;30.30;25.30
68387;DHT22;55338;43.062;25.624;2023-05-07T14:39:50;29.90;26.30
68387;DHT22;55338;43.062;25.624;2023-05-07T14:42:48;29.40;26.40
68387;DHT22;55338;43.062;25.624;2023-05-07T14:45:16;29.00;27.50
68387;DHT22;55338;43.062;25.624;2023-05-07T14:47:42;28.60;28.80
68387;DHT22;55338;43.062;25.624;2023-05-07T14:50:08;28.30;29.10
68387;DHT22;55338;43.062;25.624;2023-05-07T14:52:34;28.00;31.10
68387;DHT22;55338;43.062;25.624;2023-05-07T14:54:59;27.80;30.30
68387;DHT22;55338;43.062;25.624;2023-05-07T14:57:25;27.60;30.70
68387;DHT22;55338;43.062;25.624;2023-05-07T14:59:51;27.20;32.30
68387;DHT22;55338;43.062;25.624;2023-05-07T15:02:17;27.10;33.20
68387;DHT22;55338;43.062;25.624;2023-05-07T15:04:43;26.90;32.40
68387;DHT22;55338;43.062;25.624;2023-05-07T15:07:13;26.70;31.60
68387;DHT22;55338;43.062;25.624;2023-05-07T15:09:42;26.50;32.60
68387;DHT22;55338;43.062;25.624;2023-05-07T15:12:08;26.30;34.40
68387;DHT22;55338;43.062;25.624;2023-05-07T15:14:34;26.30;33.30
68387;DHT22;55338;43.062;25.624;2023-05-07T15:17:00;26.30;36.10
68387;DHT22;55338;43.062;25.624;2023-05-07T15:19:26;26.10;34.50
68387;DHT22;55338;43.062;25.624;2023-05-07T15:21:58;26.00;34.20
68387;DHT22;55338;43.062;25.624;2023-05-07T15:24:25;25.80;33.90
68387;DHT22;55338;43.062;25.624;2023-05-07T15:26:54;25.60;34.90
68387;DHT22;55338;43.062;25.624;2023-05-07T15:29:19;25.50;35.00
68387;DHT22;55338;43.062;25.624;2023-05-07T15:31:46;25.40;35.40
68387;DHT22;55338;43.062;25.624;2023-05-07T15:34:11;25.30;35.30
68387;DHT22;55338;43.062;25.624;2023-05-07T15:36:37;25.20;35.50
68387;DHT22;55338;43.062;25.624;2023-05-07T15:39:03;25.10;36.90
68387;DHT22;55338;43.062;25.624;2023-05-07T15:41:31;25.10;36.00